Hlavní strana
METAR-TAF:

METAR-TAF

Letiště :

Mackall Army Airfield

Camp Mackall, Severní Karolína, Spojené státy americké

zeměpisná šířka: 35-02N, zeměpisná délka: 079-30W, výška: 115 m

Aktuální stav počasí

Zpráva byla vytvořena před 24 minutami, v 03:56 UTC
Severoseverovýchodní vítr 6 kt
Teplota 10°C
Vlhkost vzduchu 66%
Tlak 1025 hPa
Viditelnost: 16.1 km
Jasno

METAR: KHFF 310356Z AUTO 03006KT 10SM CLR 10/04 A3027 RMK AO2 SLP266 T01010037 $

Čas: 00:20 (04:20 UTC)


TAF: chybějící

Stav a předpovědi počasí z více než 4 000 letišť (zprávy METAR a TAF).

Červené a žluté tečky na mapě představují dostupné meteorologické stanice.

Když kurzor umístíte na tečku, zobrazí se název stanice.

Pak kliknutím zobrazíte stav a předpověď počasí.

Chcete-li změnit mapu, kliknutím na zelené tlačítko se znaménkem +mapu přiblížíte, kliknutím na zelené tlačítko se znaménkem – mapu oddálíte a kliknutím na zelené šipky přejdete na sousední mapy.


METAR-TAF: